M I D A S
Marine Information and Data Acquisition System
Tripno 920 of the Zeeleeuw from 2005-06-23 06:25:49 to 2005-06-23 12:58:07
Back to CruiseResearch ActivitiesStationsMapUnderway DataData graphs

EquipmentUnitsComment
TimeDGPSUTC
LatitudeDGPSDM.mWGS84
LongitudeDGPSDM.mWGS84
TemperatureSBE03/SBE38deg celciusITS90
ConductivitySBE21S/mITS90
SalinitySBE21 Practical Salinity Units
ChlorophylAChelsea fluorimeterg/lCalibrated in Aceton
Missing or incorrect values are displayed as -999
Sea surface data collected by the RV Zeeleeuw from 2005-06-23 06:26:53 to 2005-06-23 13:07:03
Time Latitude Longitude Temperature Conductivity Salinity ChlorophylA
2005-06-23 06:27:58 51°13.669 2°55.926 23.4113 5.26991 33.184562 -0.309317
2005-06-23 06:28:58 51°13.687 2°55.801 23.4135 5.269699 33.183983 -0.343027
2005-06-23 06:29:57 51°13.69 2°55.747 23.4991 5.269699 33.18444 -0.343027
2005-06-23 06:30:57 51°13.715 2°55.757 23.397 5.269382 33.184486 -0.343027
2005-06-23 06:31:57 51°13.733 2°55.733 23.4153 5.269171 33.183907 -0.343027
2005-06-23 06:32:57 51°13.821 2°55.639 23.3301 5.26896 33.185157 -0.343027
2005-06-23 06:33:57 51°13.95 2°55.545 23.3736 5.268644 33.183831 -0.376736
2005-06-23 06:34:57 51°14.087 2°55.455 23.4091 5.268433 33.183709 -0.343027
2005-06-23 06:35:57 51°14.222 2°55.323 23.391 5.268327 33.18342 -0.309317
2005-06-23 06:36:57 51°14.338 2°55.117 23.3094 5.268116 33.182384 -0.343027
2005-06-23 06:37:57 51°14.476 2°54.887 23.2646 5.268011 33.183923 -0.343027
2005-06-23 06:38:57 51°14.645 2°54.656 23.323 5.267589 33.181394 -0.343027
2005-06-23 06:39:57 51°14.821 2°54.442 23.3118 5.267483 33.182019 -0.343027
2005-06-23 06:40:57 51°14.994 2°54.239 23.2974 5.267378 33.182186 -0.343027
2005-06-23 06:41:57 51°15.161 2°54.036 23.297 5.267061 33.181775 -0.343027
2005-06-23 06:42:57 51°15.344 2°53.844 23.3552 5.266955 33.181943 -0.376736
2005-06-23 06:43:56 51°15.528 2°53.655 23.3278 5.26685 33.181196 -0.343027
2005-06-23 06:44:57 51°15.721 2°53.454 23.322 5.266639 33.180617 -0.376736
2005-06-23 06:45:57 51°15.913 2°53.248 23.3175 5.266322 33.180206 -0.376736
2005-06-23 06:46:57 51°16.103 2°53.046 23.3319 5.266111 33.179627 -0.376736
2005-06-23 06:47:57 51°16.294 2°52.853 23.3606 5.266217 33.181289 -0.343027
2005-06-23 06:48:57 51°16.488 2°52.671 23.3453 5.2659 33.180878 -0.376736
2005-06-23 06:49:57 51°16.687 2°52.508 23.3724 5.265689 33.180299 -0.376736
2005-06-23 06:50:57 51°16.882 2°52.363 23.3394 5.265478 33.179262 -0.376736
2005-06-23 06:51:57 51°17.08 2°52.226 23.3276 5.265373 33.17943 -0.410446
2005-06-23 06:52:57 51°17.284 2°52.105 23.3482 5.265162 33.179766 -0.376736
2005-06-23 06:53:57 51°17.482 2°51.968 23.3774 5.264845 33.179812 -0.376736
2005-06-23 06:54:57 51°17.629 2°51.708 23.3504 5.26474 33.179065 -0.376736
2005-06-23 06:55:57 51°17.731 2°51.39 23.372 5.26474 33.179065 -0.376736
2005-06-23 06:56:57 51°17.842 2°51.063 23.3801 5.264529 33.179401 -0.376736
2005-06-23 06:57:57 51°17.954 2°50.729 23.3968 5.264318 33.17928 -0.410446
2005-06-23 06:58:57 51°18.06 2°50.387 23.4131 5.264212 33.17899 -0.376736
2005-06-23 06:59:57 51°18.165 2°50.045 23.4225 5.264107 33.179616 -0.376736
2005-06-23 07:00:57 51°18.268 2°49.701 23.4395 5.263896 33.179037 -0.376736
2005-06-23 07:01:57 51°18.371 2°49.359 23.433 5.26379 33.179662 -0.376736
2005-06-23 07:02:57 51°18.477 2°49.023 23.4485 5.263473 33.178336 -0.376736
2005-06-23 07:03:57 51°18.586 2°48.683 23.4836 5.263262 33.178215 -0.410446
2005-06-23 07:04:57 51°18.685 2°48.326 23.4631 5.262946 33.177346 -0.410446
2005-06-23 07:05:57 51°18.782 2°47.97 23.4554 5.26284 33.178429 -0.376736
2005-06-23 07:06:57 51°18.877 2°47.616 23.4793 5.262629 33.178766 -0.410446
2005-06-23 07:07:57 51°18.971 2°47.266 23.4565 5.262102 33.177318 -0.376736
2005-06-23 07:08:57 51°19.066 2°46.914 23.4941 5.262207 33.179439 -0.376736
2005-06-23 07:09:57 51°19.162 2°46.555 23.5003 5.26168 33.177533 -0.376736
2005-06-23 07:10:57 51°19.257 2°46.199 23.4998 5.261574 33.179075 -0.410446
2005-06-23 07:11:57 51°19.353 2°45.842 23.53 5.261152 33.177 -0.376736
2005-06-23 07:12:57 51°19.451 2°45.487 23.5252 5.260941 33.177337 -0.410446
2005-06-23 07:13:57 51°19.547 2°45.127 23.5282 5.260414 33.176347 -0.376736
2005-06-23 07:14:57 51°19.633 2°44.76 23.5557 5.260308 33.177431 -0.376736
2005-06-23 07:15:56 51°19.714 2°44.403 23.5618 5.259992 33.176562 -0.410446
2005-06-23 07:16:57 51°19.803 2°44.031 23.5683 5.259675 33.177068 -0.410446
2005-06-23 07:17:57 51°19.89 2°43.672 23.5892 5.259358 33.176199 -0.410446
2005-06-23 07:18:57 51°19.98 2°43.313 23.5865 5.258831 33.17475 -0.410446
2005-06-23 07:19:57 51°20.07 2°42.954 23.5758 5.25862 33.175545 -0.410446
2005-06-23 07:20:57 51°20.154 2°42.591 23.5818 5.258303 33.175593 -0.376736
2005-06-23 07:21:57 51°20.225 2°42.217 23.5906 5.257881 33.173976 -0.376736
2005-06-23 07:22:57 51°20.298 2°41.841 23.5914 5.257459 33.173733 -0.376736
2005-06-23 07:23:57 51°20.373 2°41.466 23.6189 5.257143 33.173781 -0.376736
2005-06-23 07:24:57 51°20.42 2°41.087 23.6253 5.256826 33.17337 -0.410446
2005-06-23 07:25:57 51°20.456 2°40.703 23.6129 5.256404 33.173128 -0.376736
2005-06-23 07:26:57 51°20.492 2°40.32 23.607 5.256088 33.173175 -0.410446
2005-06-23 07:27:57 51°20.528 2°39.932 23.6451 5.255665 33.172475 -0.410446
2005-06-23 07:28:57 51°20.565 2°39.541 23.6511 5.255349 33.172064 -0.376736
2005-06-23 07:29:57 51°20.602 2°39.155 23.6614 5.254927 33.171364 -0.444155
2005-06-23 07:30:57 51°20.637 2°38.762 23.6662 5.254716 33.172618 -0.410446
2005-06-23 07:31:57 51°20.667 2°38.371 23.6844 5.254188 33.171628 -0.410446
2005-06-23 07:32:57 51°20.697 2°37.978 23.6884 5.253872 33.170759 -0.410446
2005-06-23 07:33:57 51°20.729 2°37.58 23.69 5.253661 33.172472 -0.410446
2005-06-23 07:34:57 51°20.76 2°37.185 23.7093 5.253028 33.170275 -0.410446
2005-06-23 07:35:58 51°20.79 2°36.779 23.7155 5.252817 33.17153 -0.444155
2005-06-23 07:36:57 51°20.818 2°36.384 23.6918 5.252183 33.169333 -0.410446
2005-06-23 07:37:57 51°20.862 2°35.991 23.7155 5.251972 33.170588 -0.410446
2005-06-23 07:38:57 51°20.906 2°35.599 23.7456 5.25155 33.170347 -0.410446
2005-06-23 07:39:57 51°20.948 2°35.208 23.7321 5.251128 33.170564 -0.444155
2005-06-23 07:40:57 51°20.991 2°34.817 23.7477 5.250706 33.169405 -0.444155
2005-06-23 07:41:57 51°21.032 2°34.422 23.7542 5.25039 33.169912 -0.444155
2005-06-23 07:42:57 51°21.109 2°34.055 23.6233 5.250073 33.17042 -0.444155
2005-06-23 07:43:57 51°21.275 2°33.8 23.7103 5.249546 33.16943 -0.410446
2005-06-23 07:44:58 51°21.442 2°33.533 23.7257 5.249018 33.16798 -0.410446
2005-06-23 07:45:57 51°21.606 2°33.276 23.7251 5.248702 33.168029 -0.410446
2005-06-23 07:46:57 51°21.772 2°33.02 23.7404 5.24828 33.167328 -0.410446
2005-06-23 07:47:57 51°21.94 2°32.765 23.7557 5.247857 33.167087 -0.444155
2005-06-23 07:48:57 51°22.109 2°32.508 23.7725 5.247435 33.166387 -0.410446
2005-06-23 07:49:57 51°22.278 2°32.247 23.7978 5.246908 33.164478 -0.444155
2005-06-23 07:50:57 51°22.391 2°31.911 23.7905 5.246802 33.166485 -0.444155
2005-06-23 07:51:58 51°22.465 2°31.521 23.8119 5.246486 33.165155 -0.477864
2005-06-23 07:52:57 51°22.514 2°31.135 23.8027 5.246169 33.165664 -0.444155
2005-06-23 07:53:57 51°22.541 2°30.735 23.8271 5.245536 33.163465 -0.444155
2005-06-23 07:54:57 51°22.542 2°30.33 23.8082 5.245325 33.165182 -0.444155
2005-06-23 07:55:58 51°22.539 2°29.922 23.8316 5.245114 33.165521 -0.444155
2005-06-23 07:56:57 51°22.538 2°29.52 23.8428 5.244481 33.163322 -0.444155
2005-06-23 07:57:57 51°22.539 2°29.115 23.8391 5.24427 33.16412 -0.444155
2005-06-23 07:58:57 51°22.539 2°28.711 23.8599 5.243848 33.16296 -0.410446
2005-06-23 07:59:57 51°22.539 2°28.299 23.8438 5.243637 33.163759 -0.444155
2005-06-23 08:00:57 51°22.539 2°27.888 23.8592 5.24332 33.163809 -0.477864
2005-06-23 08:01:57 51°22.54 2°27.478 23.8624 5.242898 33.162649 -0.410446
2005-06-23 08:02:57 51°22.54 2°27.067 23.8815 5.242582 33.162698 -0.444155
2005-06-23 08:03:57 51°22.538 2°26.661 23.8747 5.242371 33.163038 -0.410446
2005-06-23 08:04:57 51°22.546 2°26.25 23.9045 5.241949 33.161418 -0.444155
2005-06-23 08:05:57 51°22.606 2°25.866 23.8001 5.241527 33.161177 -0.444155
2005-06-23 08:06:57 51°22.744 2°25.573 23.8319 5.24121 33.160307 -0.444155
2005-06-23 08:07:57 51°22.94 2°25.442 23.8428 5.240788 33.159147 -0.410446
2005-06-23 08:08:56 51°23.144 2°25.391 23.8612 5.240577 33.160866 -0.444155
2005-06-23 08:09:57 51°23.352 2°25.359 23.8726 5.240577 33.162246 -0.444155
2005-06-23 08:10:57 51°23.556 2°25.365 23.8819 5.239944 33.159585 -0.444155
2005-06-23 08:11:57 51°23.76 2°25.365 23.9022 5.239838 33.161135 -0.444155
2005-06-23 08:12:57 51°23.96 2°25.363 23.8999 5.239522 33.160725 -0.444155
2005-06-23 08:13:57 51°24.162 2°25.357 23.9314 5.239205 33.161695 -0.444155
2005-06-23 08:14:57 51°24.361 2°25.356 23.9267 5.238572 33.159955 -0.477864
2005-06-23 08:15:57 51°24.557 2°25.373 23.9353 5.238256 33.160925 -0.410446
2005-06-23 08:16:57 51°24.751 2°25.388 23.956 5.237623 33.159645 -0.444155
2005-06-23 08:17:57 51°24.942 2°25.402 23.9658 5.237201 33.158945 -0.477864
2005-06-23 08:18:58 51°25.138 2°25.416 23.9752 5.236779 33.159165 -0.444155
2005-06-23 08:19:57 51°25.33 2°25.426 15.8451 3.91057 24.050137 -0.477864
2005-06-23 08:20:57 51°25.525 2°25.44 15.0618 4.367756 34.562972 2.926785
2005-06-23 08:21:57 51°25.721 2°25.45 14.8789 4.283826 34.548067 2.320016
2005-06-23 08:22:58 51°25.917 2°25.46 14.787 4.249347 34.418718 2.050341
2005-06-23 08:23:57 51°26.111 2°25.474 14.7397 4.261264 34.616806 2.252597
2005-06-23 08:24:57 51°26.307 2°25.489 14.7171 4.251985 34.578674 1.814375
2005-06-23 08:25:57 51°26.503 2°25.506 14.6907 4.242074 34.517974 2.050341
2005-06-23 08:26:57 51°26.699 2°25.522 14.6718 4.25167 34.634182 2.522272
2005-06-23 08:27:57 51°26.896 2°25.539 14.6795 4.245343 34.596029 2.758238
2005-06-23 08:28:57 51°27.092 2°25.556 14.6873 4.243129 34.574508 2.859366
2005-06-23 08:29:57 51°27.287 2°25.581 14.6231 4.250827 34.650041 2.387435
2005-06-23 08:30:57 51°27.483 2°25.589 14.6219 4.243341 34.639685 1.612118
2005-06-23 08:31:57 51°27.68 2°25.579 14.609 4.244817 34.659233 1.308734
2005-06-23 08:32:58 51°27.878 2°25.571 14.614 4.243236 34.650188 1.039059
2005-06-23 08:33:57 51°28.073 2°25.558 14.6288 4.239334 34.614564 0.93793
2005-06-23 08:34:57 51°28.27 2°25.539 14.6149 4.237014 34.595405 0.735674
2005-06-23 08:35:57 51°28.467 2°25.522 14.6048 4.231953 34.555255 0.769383
2005-06-23 08:36:57 51°28.666 2°25.506 14.5909 4.240072 34.635467 0.533418
2005-06-23 08:37:57 51°28.862 2°25.491 14.6155 4.239545 34.636724 0.634546
2005-06-23 08:38:57 51°29.058 2°25.478 14.6026 4.223728 34.484879 0.567127
2005-06-23 08:39:57 51°29.255 2°25.467 14.5957 4.22647 34.51932 0.465999
2005-06-23 08:40:57 51°29.452 2°25.46 14.5812 4.239545 34.64415 0.634546
2005-06-23 08:41:57 51°29.65 2°25.455 14.5758 4.236171 34.628167 0.600836
2005-06-23 08:42:57 51°29.85 2°25.45 14.5802 4.239757 34.664996 0.567127
2005-06-23 08:43:57 51°30.048 2°25.442 14.5939 4.230266 34.572176 0.567127
2005-06-23 08:44:57 51°30.246 2°25.427 14.6145 4.239967 34.648679 0.634546
2005-06-23 08:45:57 51°30.438 2°25.441 14.6519 4.229106 34.531954 0.634546
2005-06-23 08:46:57 51°30.623 2°25.502 14.653 4.228895 34.507177 0.499708
2005-06-23 08:47:57 51°30.81 2°25.562 14.6696 4.230793 34.517104 0.600836
2005-06-23 08:48:58 51°30.998 2°25.622 14.6773 4.245977 34.642847 0.567127
2005-06-23 08:49:57 51°31.173 2°25.731 14.6475 4.246187 34.641402 0.600836
2005-06-23 08:50:57 51°31.344 2°25.872 14.6365 4.241654 34.626306 0.735674
2005-06-23 08:51:57 51°31.511 2°26.019 14.6277 4.239018 34.612349 0.769383
2005-06-23 08:52:57 51°31.679 2°26.169 14.6288 4.238912 34.618128 0.701965
2005-06-23 08:53:57 51°31.848 2°26.315 14.6256 4.235538 34.590684 0.735674
2005-06-23 08:54:57 51°32.016 2°26.461 14.6243 4.241865 34.650491 0.803093
2005-06-23 08:55:57 51°32.184 2°26.606 14.6079 4.239123 34.622751 0.836802
2005-06-23 08:56:57 51°32.352 2°26.751 14.5979 4.241021 34.651561 1.072768
2005-06-23 08:57:57 51°32.523 2°26.899 14.5937 4.236698 34.622859 1.039059
2005-06-23 08:58:57 51°32.692 2°27.043 14.5881 4.235855 34.6192 1.039059
2005-06-23 08:59:57 51°32.863 2°27.188 14.5847 4.236277 34.629131 1.140187
2005-06-23 09:00:57 51°33.033 2°27.333 14.5766 4.235222 34.622868 1.005349
2005-06-23 09:01:57 51°33.203 2°27.478 14.576 4.230794 34.591833 1.039059
2005-06-23 09:02:57 51°33.373 2°27.623 14.5704 4.231848 34.599448 1.477281
2005-06-23 09:03:57 51°33.545 2°27.769 14.5671 4.225311 34.543733 1.207606
2005-06-23 09:04:57 51°33.715 2°27.915 14.564 4.22394 34.534572 1.241315
2005-06-23 09:05:57 51°33.887 2°28.062 14.5539 4.230794 34.603309 1.275024
2005-06-23 09:06:57 51°34.058 2°28.209 14.5466 4.230161 34.606303 1.207606
2005-06-23 09:07:57 51°34.229 2°28.356 14.5381 4.229951 34.61113 1.645828
2005-06-23 09:08:58 51°34.4 2°28.507 14.52 4.233958 34.653883 1.376153
2005-06-23 09:09:57 51°34.566 2°28.659 14.5192 4.226893 34.600045 1.275024
2005-06-23 09:10:57 51°34.735 2°28.809 14.5146 4.230056 34.634413 1.241315
2005-06-23 09:11:57 51°34.902 2°28.959 14.4994 4.234274 34.683197 1.443571
2005-06-23 09:12:57 51°35.07 2°29.109 14.4904 4.234696 34.692486 1.477281
2005-06-23 09:13:57 51°35.238 2°29.259 14.4789 4.234696 34.700627 1.275024
2005-06-23 09:14:57 51°35.402 2°29.404 14.4682 4.233326 34.702319 1.275024
2005-06-23 09:15:58 51°35.567 2°29.553 14.4611 4.233115 34.707856 1.376153
2005-06-23 09:16:57 51°35.73 2°29.702 14.4488 4.232693 34.708065 1.072768
2005-06-23 09:17:57 51°35.896 2°29.85 14.4422 4.231639 34.708587 1.477281
2005-06-23 09:18:57 51°36.061 2°30 14.4221 4.230796 34.713765 1.477281
2005-06-23 09:19:57 51°36.224 2°30.15 14.4074 4.229531 34.717797 1.443571
2005-06-23 09:20:57 51°36.387 2°30.302 14.3885 4.228265 34.719112 1.275024
2005-06-23 09:21:58 51°36.553 2°30.453 14.3693 4.227 34.723835 1.679537
2005-06-23 09:22:58 51°36.716 2°30.602 14.3524 4.225208 34.725083 1.612118
2005-06-23 09:23:57 51°36.878 2°30.751 14.3468 4.223732 34.723786 1.376153
2005-06-23 09:24:57 51°37.043 2°30.901 14.3519 4.223205 34.727123 1.275024
2005-06-23 09:25:57 51°37.206 2°31.05 14.3401 4.223732 34.72856 1.477281
2005-06-23 09:26:58 51°37.371 2°31.203 14.3249 4.222572 34.728128 1.173896
2005-06-23 09:27:58 51°37.534 2°31.352 14.329 4.222256 34.730678 1.409862
2005-06-23 09:28:57 51°37.698 2°31.5 14.3145 4.221413 34.728379 1.106477
2005-06-23 09:29:57 51°37.87 2°31.621 14.3148 4.220675 34.730463 1.443571
2005-06-23 09:30:57 51°38.045 2°31.741 14.3064 4.22078 34.73075 1.342443
2005-06-23 09:31:57 51°38.219 2°31.865 14.304 4.219937 34.729134 1.072768
2005-06-23 09:32:57 51°38.394 2°31.987 14.3044 4.219515 34.729351 0.870512
2005-06-23 09:33:58 51°38.571 2°32.112 14.2904 4.219304 34.730142 1.106477
2005-06-23 09:34:57 51°38.744 2°32.236 14.2796 4.218882 34.733775 0.904221
2005-06-23 09:35:58 51°38.92 2°32.36 14.286 4.217723 34.729247 1.106477
2005-06-23 09:36:57 51°39.083 2°32.513 14.2742 4.217617 34.727593 1.005349
2005-06-23 09:37:58 51°39.194 2°32.774 14.2625 4.217723 34.734715 1.005349
2005-06-23 09:38:57 51°39.327 2°32.997 14.2482 4.216352 34.734397 1.005349
2005-06-23 09:39:57 51°39.463 2°33.22 14.2474 4.213927 34.722314 0.93793
2005-06-23 09:40:58 51°39.599 2°33.447 14.2344 4.21224 34.714293 0.97164
2005-06-23 09:41:57 51°39.733 2°33.672 14.2302 4.209921 34.703857 0.803093
2005-06-23 09:42:57 51°39.871 2°33.902 14.2204 4.211819 34.724772 0.803093
2005-06-23 09:43:57 51°40.007 2°34.131 14.2199 4.207812 34.694678 0.93793
2005-06-23 09:44:58 51°40.144 2°34.36 14.2169 4.209499 34.710915 0.735674
2005-06-23 09:45:58 51°40.279 2°34.59 14.222 4.208234 34.698566 0.904221
2005-06-23 09:46:58 51°40.415 2°34.819 14.2235 4.211081 34.720706 1.005349
2005-06-23 09:47:58 51°40.55 2°35.048 14.2283 4.210132 34.711958 0.803093
2005-06-23 09:48:57 51°40.683 2°35.278 14.2215 4.205703 34.669088 0.769383
2005-06-23 09:49:58 51°40.802 2°35.528 14.2395 4.204754 34.663758 0.567127
2005-06-23 09:50:58 51°40.841 2°35.843 14.2332 4.209182 34.695687 0.634546
2005-06-23 09:51:57 51°40.874 2°36.158 14.2434 4.208655 34.690829 0.600836
2005-06-23 09:52:58 51°40.877 2°36.483 14.2497 4.212346 34.715264 0.634546
2005-06-23 09:53:57 51°40.86 2°36.811 14.2617 4.212135 34.709902 0.634546
2005-06-23 09:54:57 51°40.823 2°37.147 14.2662 4.213716 34.714902 0.499708
2005-06-23 09:55:57 51°40.75 2°37.472 14.287 4.208128 34.65797 0.331161
2005-06-23 09:56:57 51°40.637 2°37.78 14.2943 4.214876 34.700988 0.465999
2005-06-23 09:57:57 51°40.527 2°38.091 14.3023 4.215192 34.698439 0.465999
2005-06-23 09:58:57 51°40.419 2°38.403 14.3072 4.215086 34.690644 0.701965
2005-06-23 09:59:57 51°40.311 2°38.713 14.3212 4.216141 34.69557 0.634546
2005-06-23 10:00:58 51°40.204 2°39.026 14.3454 4.217511 34.690448 0.331161
2005-06-23 10:01:58 51°40.1 2°39.338 14.3839 4.217511 34.668647 0.39858
2005-06-23 10:02:58 51°39.997 2°39.65 14.4319 4.217721 34.638616 0.364871
2005-06-23 10:03:57 51°39.895 2°39.959 14.5034 4.222676 34.637247 0.364871
2005-06-23 10:04:57 51°39.789 2°40.268 14.5631 4.226472 34.616474 0.331161
2005-06-23 10:05:57 51°39.667 2°40.566 14.5947 4.23111 34.610254 0.364871
2005-06-23 10:06:57 51°39.546 2°40.866 14.6232 4.232375 34.593471 0.263742
2005-06-23 10:07:58 51°39.425 2°41.166 14.6625 4.233535 34.580473 0.39858
2005-06-23 10:08:57 51°39.304 2°41.456 14.6835 4.235538 34.563755 0.432289
2005-06-23 10:09:57 51°39.185 2°41.752 14.6973 4.236381 34.550609 0.230033
2005-06-23 10:10:57 51°39.064 2°42.051 14.7122 4.236908 34.543326 0.162614
2005-06-23 10:11:57 51°38.869 2°42.215 14.7315 4.237962 34.534813 0.162614
2005-06-23 10:12:58 51°38.622 2°42.193 14.7367 4.238067 34.527054 0.196324
2005-06-23 10:13:57 51°38.38 2°42.142 14.7491 4.237962 34.52207 0.331161
2005-06-23 10:14:58 51°38.132 2°42.085 14.7756 4.237751 34.504739 0.331161
2005-06-23 10:15:57 51°37.888 2°42.026 14.7795 4.238067 34.489546 0.263742
2005-06-23 10:16:57 51°37.642 2°41.966 14.7916 4.236696 34.471055 0.230033
2005-06-23 10:17:57 51°37.458 2°41.724 14.8152 4.237117 34.45418 0.297452
2005-06-23 10:18:57 51°37.404 2°41.345 14.8008 4.237117 34.43883 0.364871
2005-06-23 10:19:57 51°37.38 2°40.958 14.7812 4.23659 34.45406 0.297452
2005-06-23 10:20:58 51°37.395 2°40.573 14.7641 4.236696 34.471055 0.331161
2005-06-23 10:21:57 51°37.416 2°40.198 14.7457 4.237118 34.486931 0.364871
2005-06-23 10:22:57 51°37.432 2°39.821 14.7349 4.237856 34.512397 0.364871
2005-06-23 10:23:58 51°37.45 2°39.442 14.734 4.238384 34.528594 0.364871
2005-06-23 10:24:57 51°37.467 2°39.067 14.719 4.239544 34.540502 0.39858
2005-06-23 10:25:57 51°37.482 2°38.688 14.7067 4.239544 34.553924 0.499708
2005-06-23 10:26:57 51°37.499 2°38.311 14.7012 4.240493 34.571307 0.499708
2005-06-23 10:27:57 51°37.516 2°37.938 14.6714 4.24102 34.58149 0.634546
2005-06-23 10:28:57 51°37.533 2°37.564 14.6339 4.239123 34.591085 0.465999
2005-06-23 10:29:58 51°37.55 2°37.187 14.597 4.237542 34.607632 0.567127
2005-06-23 10:30:57 51°37.566 2°36.816 14.5744 4.235749 34.618911 0.533418
2005-06-23 10:31:58 51°37.581 2°36.438 14.5485 4.234801 34.635224 0.499708
2005-06-23 10:32:57 51°37.597 2°36.066 14.517 4.233325 34.642004 0.634546
2005-06-23 10:33:57 51°37.607 2°35.687 14.4794 4.2309 34.652293 0.567127
2005-06-23 10:34:57 51°37.608 2°35.307 14.4351 4.228792 34.664151 0.668255
2005-06-23 10:35:58 51°37.606 2°34.924 14.4106 4.225207 34.667928 0.465999
2005-06-23 10:36:57 51°37.597 2°34.547 14.3997 4.223204 34.670606 0.499708
2005-06-23 10:37:57 51°37.524 2°34.186 14.3929 4.222361 34.67442 0.432289
2005-06-23 10:38:57 51°37.322 2°33.991 14.4051 4.222361 34.679181 0.432289
2005-06-23 10:39:57 51°37.094 2°33.864 14.4124 4.224258 34.679605 0.39858
2005-06-23 10:40:57 51°36.867 2°33.73 14.4171 4.22468 34.684157 0.39858
2005-06-23 10:41:57 51°36.642 2°33.59 14.4224 4.225207 34.680158 0.331161
2005-06-23 10:42:57 51°36.418 2°33.446 14.4285 4.22584 34.681886 0.331161
2005-06-23 10:43:57 51°36.193 2°33.3 14.4364 4.226894 34.688164 0.364871
2005-06-23 10:44:57 51°35.97 2°33.151 14.4426 4.227211 34.689707 0.364871
2005-06-23 10:45:57 51°35.748 2°33.002 14.4251 4.228581 34.699566 0.39858
2005-06-23 10:46:58 51°35.525 2°32.853 14.4343 4.228582 34.707046 0.465999
2005-06-23 10:47:57 51°35.303 2°32.71 14.442 4.229636 34.709242 0.499708
2005-06-23 10:48:57 51°35.078 2°32.573 14.4662 4.230374 34.707175 0.499708
2005-06-23 10:49:58 51°34.853 2°32.436 14.4836 4.232482 34.70681 0.331161
2005-06-23 10:50:57 51°34.629 2°32.302 14.5015 4.234064 34.704332 0.297452
2005-06-23 10:51:57 51°34.408 2°32.162 14.5312 4.235434 34.696534 0.230033
2005-06-23 10:52:57 51°34.187 2°32.016 14.5618 4.238281 34.698875 0.263742
2005-06-23 10:53:58 51°33.966 2°31.87 14.5818 4.239968 34.696023 0.230033
2005-06-23 10:54:58 51°33.747 2°31.726 14.5913 4.24176 34.69008 0.297452
2005-06-23 10:55:58 51°33.527 2°31.582 14.613 4.242604 34.688998 0.331161
2005-06-23 10:56:58 51°33.308 2°31.435 14.6148 4.243763 34.686751 0.230033
2005-06-23 10:57:57 51°33.09 2°31.293 14.6253 4.244079 34.680854 0.364871
2005-06-23 10:58:58 51°32.865 2°31.163 14.6328 4.244817 34.682868 0.196324
2005-06-23 10:59:58 51°32.638 2°31.054 14.6275 4.245661 34.67909 0.263742
2005-06-23 11:00:58 51°32.403 2°31.05 14.6414 4.245134 34.681704 0.263742
2005-06-23 11:01:57 51°32.177 2°31.131 14.6412 4.246188 34.681879 0.263742
2005-06-23 11:02:58 51°31.953 2°31.258 14.653 4.246715 34.679265 0.432289
2005-06-23 11:03:58 51°31.737 2°31.402 14.6601 4.246926 34.675115 0.263742
2005-06-23 11:04:58 51°31.529 2°31.574 14.6691 4.247769 34.674717 0.364871
2005-06-23 11:05:58 51°31.322 2°31.745 14.6935 4.247453 34.665083 0.39858
2005-06-23 11:06:57 51°31.117 2°31.911 14.7274 4.249034 34.659963 0.499708
2005-06-23 11:07:58 51°30.907 2°32.076 14.7508 4.251986 34.655902 0.364871
2005-06-23 11:08:58 51°30.699 2°32.237 14.7879 4.253568 34.648111 0.432289
2005-06-23 11:09:57 51°30.497 2°32.407 14.8189 4.254622 34.622102 0.364871
2005-06-23 11:10:58 51°30.302 2°32.606 14.8115 4.255887 34.607453 0.499708
2005-06-23 11:11:58 51°30.113 2°32.819 14.8345 4.25536 34.613386 0.364871
2005-06-23 11:12:57 51°29.941 2°33.058 14.8701 4.258733 34.615243 0.465999
2005-06-23 11:13:58 51°29.792 2°33.343 14.8186 4.260104 34.609616 0.499708
2005-06-23 11:14:58 51°29.733 2°33.697 14.8086 4.255254 34.60304 0.465999
2005-06-23 11:15:58 51°29.699 2°34.064 14.8007 4.254199 34.577377 0.533418
2005-06-23 11:16:58 51°29.661 2°34.424 14.7566 4.25304 34.612406 0.701965
2005-06-23 11:17:57 51°29.627 2°34.778 14.8153 4.252091 34.616522 0.769383
2005-06-23 11:18:57 51°29.592 2°35.135 14.8867 4.255149 34.602752 0.870512
2005-06-23 11:19:58 51°29.557 2°35.497 14.8916 4.262529 34.60755 0.769383
2005-06-23 11:20:58 51°29.523 2°35.859 14.8731 4.261053 34.600835 0.634546
2005-06-23 11:21:57 51°29.488 2°36.219 14.8787 4.259471 34.597174 0.567127
2005-06-23 11:22:58 51°29.454 2°36.585 14.8627 4.259155 34.600993 0.39858
2005-06-23 11:23:58 51°29.42 2°36.952 14.8572 4.257784 34.593224 0.567127
2005-06-23 11:24:58 51°29.382 2°37.317 14.863 4.25673 34.588997 0.567127
2005-06-23 11:25:58 51°29.272 2°37.638 14.8473 4.256413 34.582776 0.432289
2005-06-23 11:26:57 51°29.12 2°37.914 14.8122 4.254727 34.582169 0.39858
2005-06-23 11:27:57 51°28.944 2°38.155 14.7886 4.251142 34.580381 0.432289
2005-06-23 11:28:58 51°28.748 2°38.357 14.8001 4.250193 34.575769 0.465999
2005-06-23 11:29:58 51°28.534 2°38.502 14.8096 4.251564 34.58824 0.432289
2005-06-23 11:30:57 51°28.322 2°38.638 14.8489 4.251036 34.573392 0.39858
2005-06-23 11:31:58 51°28.106 2°38.764 14.9104 4.25441 34.563904 0.331161
2005-06-23 11:32:57 51°27.892 2°38.872 14.9679 4.257889 34.535386 0.331161
2005-06-23 11:33:58 51°27.671 2°38.973 15.0095 4.259259 34.514498 0.263742
2005-06-23 11:34:58 51°27.45 2°39.069 15.0351 4.261051 34.498139 0.297452
2005-06-23 11:35:58 51°27.228 2°39.162 15.0681 4.262738 34.480864 0.297452
2005-06-23 11:36:57 51°27.01 2°39.267 15.0813 4.266006 34.489858 0.263742
2005-06-23 11:37:57 51°26.791 2°39.382 15.0885 4.267904 34.48182 0.297452
2005-06-23 11:38:58 51°26.572 2°39.498 15.1454 4.266533 34.478048 0.297452
2005-06-23 11:39:58 51°26.361 2°39.634 15.1898 4.267798 34.442482 0.263742
2005-06-23 11:40:58 51°26.158 2°39.773 15.7131 4.266953 34.366946 0.230033
2005-06-23 11:41:58 51°25.956 2°39.913 15.7811 4.275066 34.006273 0.297452
2005-06-23 11:42:57 51°25.755 2°40.049 15.7101 4.276858 33.993364 0.331161
2005-06-23 11:43:58 51°25.55 2°40.191 15.6345 4.273485 34.015948 0.297452
2005-06-23 11:44:58 51°25.34 2°40.307 15.6985 4.270955 34.053223 0.230033
2005-06-23 11:45:58 51°25.132 2°40.422 15.6991 4.273168 34.004146 0.263742
2005-06-23 11:46:58 51°24.923 2°40.535 15.727 4.271692 34.002563 0.331161
2005-06-23 11:47:58 51°24.711 2°40.61 15.7509 4.272641 33.99304 0.364871
2005-06-23 11:48:58 51°24.493 2°40.616 15.7104 4.268633 33.924758 0.364871
2005-06-23 11:49:58 51°24.275 2°40.624 15.7368 4.271059 33.977688 0.39858
2005-06-23 11:50:58 51°24.058 2°40.638 15.761 4.271797 33.963109 0.668255
2005-06-23 11:51:58 51°23.84 2°40.654 15.7889 4.271058 33.940551 0.769383
2005-06-23 11:52:58 51°23.623 2°40.667 15.8457 4.271058 33.915629 0.803093
2005-06-23 11:53:58 51°23.412 2°40.675 16.5304 4.268524 33.721202 0.701965
2005-06-23 11:54:57 51°23.204 2°40.684 16.5148 4.277797 33.372754 0.769383
2005-06-23 11:55:57 51°22.994 2°40.696 16.4798 4.272841 33.336303 0.870512
2005-06-23 11:56:58 51°22.781 2°40.71 16.4187 4.265987 33.310939 0.803093
2005-06-23 11:57:58 51°22.57 2°40.728 16.4763 4.270417 33.3878 0.836802
2005-06-23 11:58:58 51°22.359 2°40.762 16.5674 4.276109 33.343295 0.904221
2005-06-23 11:59:58 51°22.148 2°40.807 16.4138 4.286865 33.441361 0.769383
2005-06-23 12:00:58 51°21.939 2°40.873 16.4726 4.282438 33.494103 0.769383
2005-06-23 12:01:58 51°21.731 2°40.951 16.4417 4.291084 33.513344 0.93793
2005-06-23 12:02:58 51°21.54 2°41.109 16.4815 4.295724 33.574296 0.836802
2005-06-23 12:03:58 51°21.357 2°41.301 16.5042 4.296251 33.562174 0.93793
2005-06-23 12:04:58 51°21.174 2°41.49 16.5227 4.299942 33.581396 0.836802
2005-06-23 12:05:58 51°20.989 2°41.684 16.4136 4.305109 33.617214 0.97164
2005-06-23 12:06:57 51°20.823 2°41.913 17.2425 4.301736 33.660383 1.039059
2005-06-23 12:07:58 51°20.678 2°42.192 17.3439 4.303516 32.92723 1.106477
2005-06-23 12:08:58 51°20.546 2°42.487 17.9499 4.313956 33.065908 1.039059
2005-06-23 12:09:58 51°20.437 2°42.792 18.1981 4.311732 32.468488 1.039059
2005-06-23 12:10:58 51°20.342 2°43.116 17.7627 4.300025 32.295388 1.207606
2005-06-23 12:11:58 51°20.239 2°43.43 17.78 4.28126 32.407948 0.904221
2005-06-23 12:12:58 51°20.134 2°43.745 17.6753 4.276725 32.360409 1.005349
2005-06-23 12:13:58 51°20.026 2°44.058 17.654 4.272509 32.407706 1.072768
2005-06-23 12:14:58 51°19.919 2°44.373 17.5219 4.26924 32.382899 1.207606
2005-06-23 12:15:58 51°19.81 2°44.69 17.42 4.2665 32.464447 1.072768
2005-06-23 12:16:58 51°19.709 2°45.018 17.3217 4.265236 32.54515 1.005349
2005-06-23 12:17:58 51°19.607 2°45.351 17.1546 4.267452 32.635528 1.140187
2005-06-23 12:18:58 51°19.498 2°45.691 16.9113 4.272832 32.825136 1.140187
2005-06-23 12:19:58 51°19.394 2°46.028 17.5039 4.276421 33.034765 1.106477
2005-06-23 12:20:58 51°19.292 2°46.357 17.6971 4.245198 32.187346 1.275024
2005-06-23 12:21:58 51°19.191 2°46.687 17.4074 4.249732 32.189012 1.275024
2005-06-23 12:22:58 51°19.088 2°47.015 17.2819 4.243936 32.365428 1.308734
2005-06-23 12:23:57 51°18.986 2°47.344 17.4765 4.236662 32.391308 1.342443
2005-06-23 12:24:58 51°18.885 2°47.679 17.6605 4.23571 32.220214 1.342443
2005-06-23 12:25:58 51°18.782 2°48.01 17.5076 4.247096 32.188496 1.275024
2005-06-23 12:26:58 51°18.678 2°48.342 17.4032 4.246887 32.323848 1.173896
2005-06-23 12:27:58 51°18.573 2°48.675 17.7502 4.244147 32.356187 1.5447
2005-06-23 12:28:58 51°18.466 2°49.01 17.8847 4.252683 32.147604 1.241315
2005-06-23 12:29:58 51°18.371 2°49.357 17.9293 4.249834 32.039949 1.308734
2005-06-23 12:30:58 51°18.278 2°49.705 18.0572 4.243085 31.948087 1.241315
2005-06-23 12:31:57 51°18.181 2°50.028 18.4378 4.246773 31.830609 1.207606
2005-06-23 12:32:58 51°18.076 2°50.359 18.1489 4.237701 31.546354 1.207606
2005-06-23 12:33:58 51°17.972 2°50.686 17.9435 4.219674 31.592871 1.275024
2005-06-23 12:34:58 51°17.867 2°51.017 17.8247 4.205864 31.630956 1.140187
2005-06-23 12:35:58 51°17.764 2°51.35 18.1556 4.204705 31.692374 1.275024
2005-06-23 12:36:58 51°17.655 2°51.677 17.9253 4.238337 31.696522 1.173896
2005-06-23 12:37:58 51°17.522 2°51.972 17.7189 4.228113 31.843653 1.409862
2005-06-23 12:38:58 51°17.334 2°52.139 17.813 4.220418 31.917932 1.443571
2005-06-23 12:39:58 51°17.134 2°52.257 18.0318 4.243508 32.000864 1.275024
2005-06-23 12:40:58 51°16.933 2°52.379 18.5632 4.269445 32.031091 1.342443
2005-06-23 12:41:57 51°16.737 2°52.517 18.6094 4.304341 31.924859 1.443571
2005-06-23 12:42:57 51°16.541 2°52.654 18.8225 4.304236 31.945581 1.443571
2005-06-23 12:43:58 51°16.346 2°52.793 18.6893 4.227574 31.200219 1.477281
2005-06-23 12:44:58 51°16.151 2°52.932 18.6176 4.205643 31.0481 1.443571
2005-06-23 12:45:58 51°15.954 2°53.076 18.631 4.234745 31.326354 1.5447
2005-06-23 12:46:57 51°15.76 2°53.215 18.7844 4.231793 31.322045 1.477281
2005-06-23 12:47:58 51°15.562 2°53.354 18.9861 4.223671 31.095103 1.679537
2005-06-23 12:48:57 51°15.368 2°53.496 19.0762 4.252245 31.240684 1.679537
2005-06-23 12:49:58 51°15.187 2°53.7 19.296 4.315934 31.614923 1.645828
2005-06-23 12:50:58 51°15.017 2°53.925 18.7599 4.346092 31.765288 1.5447
2005-06-23 12:51:58 51°14.842 2°54.138 18.7042 4.322162 32.009847 1.612118
2005-06-23 12:52:58 51°14.669 2°54.359 18.8147 4.311511 31.915687 1.949212
2005-06-23 12:53:57 51°14.516 2°54.6 18.771 4.340404 32.079841 1.915503
2005-06-23 12:54:58 51°14.436 2°54.866 18.6741 4.346521 32.154191 1.949212
2005-06-23 12:55:58 51°14.357 2°55.092 18.7833 4.338613 32.181044 2.050341
2005-06-23 12:56:58 51°14.25 2°55.288 19.2905 4.341035 32.004525 2.016631
2005-06-23 12:57:57 51°14.139 2°55.409 19.4095 4.355899 31.809129 1.949212
2005-06-23 12:58:57 51°14.019 2°55.493 19.4125 4.324789 31.522324 2.218888
2005-06-23 12:59:57 51°13.892 2°55.585 19.6533 4.300851 31.31643 -0.376736
2005-06-23 13:00:58 51°13.767 2°55.694 19.7276 4.301905 31.326064 -0.309317
2005-06-23 13:01:58 51°13.701 2°55.809 19.8085 4.302538 31.330146 -0.343027
2005-06-23 13:02:58 51°13.656 2°55.901 19.8789 4.30296 31.330919 -0.376736
2005-06-23 13:03:58 51°13.617 2°55.985 19.9182 4.303065 31.329653 -0.376736
2005-06-23 13:04:58 51°13.597 2°56.068 20.0094 4.303171 31.328386 -0.410446
2005-06-23 13:05:57 51°13.596 2°56.102 20.1042 4.303698 31.323649 -0.376736
2005-06-23 13:06:58 51°13.597 2°56.108 20.169 4.304436 31.322219 -0.376736